Terminal Aerodrome Forecast
Issued by NWS

Home | Current Version | Previous Version | Text Only | Print | Product List | Glossary On
Versions: 1 2 3 4 5 6 7 8 9 10 11 12 13 14 15 16 17 18 19 20 21
968
FTUS44 KLZK 241038 AAB
TAFBPK
TAF AMD
KBPK 241038Z 2411/2506 20008G15KT P6SM BKN250 WS020/19040KT
     FM241400 20012G22KT P6SM BKN050 BKN250
     FM241900 20015G25KT P6SM VCTS BKN035CB OVC050
      TEMPO 2420/2424 3SM TSRA BR OVC035CB
     FM250000 19012G22KT P6SM VCTS SCT020CB OVC050=

USA.gov is the U.S. government's official web portal to all federal, state and local government web resources and services.